createdAt,value
2019-03-21T00:02:22.745Z,8.73
2019-03-21T00:04:56.236Z,8.73
2019-03-21T00:07:27.606Z,8.73
2019-03-21T00:10:36.967Z,8.72
2019-03-21T00:13:08.404Z,8.72
2019-03-21T00:15:41.750Z,8.76
2019-03-21T00:18:14.272Z,8.75
2019-03-21T00:20:45.249Z,8.75
2019-03-21T00:23:16.234Z,8.78
2019-03-21T00:25:47.315Z,8.77
2019-03-21T00:28:18.658Z,8.77
2019-03-21T00:30:49.642Z,8.79
2019-03-21T00:33:20.646Z,8.77
2019-03-21T00:35:51.627Z,8.78
2019-03-21T00:38:22.627Z,8.77
2019-03-21T00:40:53.605Z,8.75
2019-03-21T00:43:24.610Z,8.74
2019-03-21T00:45:55.590Z,8.72
2019-03-21T00:48:26.613Z,8.72
2019-03-21T00:50:58.257Z,8.70
2019-03-21T00:53:29.237Z,8.68
2019-03-21T00:56:00.403Z,8.70
2019-03-21T00:58:31.794Z,8.72
2019-03-21T01:01:02.878Z,8.70
2019-03-21T01:03:33.920Z,8.70
2019-03-21T01:06:04.922Z,8.70
2019-03-21T01:08:35.924Z,8.73
2019-03-21T01:11:06.959Z,8.80
2019-03-21T01:13:38.251Z,8.85
2019-03-21T01:16:09.223Z,8.82
2019-03-21T01:18:40.393Z,8.79
2019-03-21T01:21:11.483Z,8.78
2019-03-21T01:23:42.456Z,8.77
2019-03-21T01:26:13.955Z,8.73
2019-03-21T01:28:45.141Z,8.69
2019-03-21T01:31:16.122Z,8.69
2019-03-21T01:33:47.438Z,8.65
2019-03-21T01:36:19.595Z,8.63
2019-03-21T01:38:50.576Z,8.66
2019-03-21T01:41:21.561Z,8.62
2019-03-21T01:43:52.850Z,8.60
2019-03-21T01:46:23.871Z,8.58
2019-03-21T01:48:54.847Z,8.58
2019-03-21T01:51:25.869Z,8.61
2019-03-21T01:53:56.923Z,8.61
2019-03-21T01:56:29.032Z,8.58
2019-03-21T01:59:00.329Z,8.58
2019-03-21T02:01:31.342Z,8.58
2019-03-21T02:04:02.355Z,8.56
2019-03-21T02:06:33.667Z,8.56
2019-03-21T02:09:08.344Z,8.55
2019-03-21T02:11:40.815Z,8.57
2019-03-21T02:14:12.629Z,8.59
2019-03-21T02:16:43.603Z,8.62
2019-03-21T02:19:14.610Z,8.61
2019-03-21T02:21:45.963Z,8.64
2019-03-21T02:24:16.998Z,8.62
2019-03-21T02:26:48.358Z,8.63
2019-03-21T02:29:20.333Z,8.69
2019-03-21T02:31:52.258Z,8.64
2019-03-21T02:34:23.280Z,8.71
2019-03-21T02:36:54.263Z,8.64
2019-03-21T02:39:25.238Z,8.61
2019-03-21T02:41:57.762Z,8.59
2019-03-21T02:44:28.738Z,8.61
2019-03-21T02:47:00.087Z,8.63
2019-03-21T02:49:31.106Z,8.65
2019-03-21T02:52:02.483Z,8.62
2019-03-21T02:54:33.499Z,8.63
2019-03-21T02:57:04.542Z,8.59
2019-03-21T02:59:35.508Z,8.59
2019-03-21T03:02:06.510Z,8.58
2019-03-21T03:04:37.487Z,8.57
2019-03-21T03:07:08.505Z,8.57
2019-03-21T03:09:40.509Z,8.58
2019-03-21T03:12:11.827Z,8.58
2019-03-21T03:14:42.833Z,8.56
2019-03-21T03:17:13.809Z,8.57
2019-03-21T03:19:44.808Z,8.59
2019-03-21T03:22:15.809Z,8.56
2019-03-21T03:24:46.829Z,8.59
2019-03-21T03:27:17.812Z,8.56
2019-03-21T03:29:48.841Z,8.61
2019-03-21T03:32:19.822Z,8.68
2019-03-21T03:34:50.848Z,8.63
2019-03-21T03:37:21.841Z,8.59
2019-03-21T03:39:52.821Z,8.58
2019-03-21T03:42:23.919Z,8.55
2019-03-21T03:44:54.953Z,8.57
2019-03-21T03:47:26.264Z,8.56
2019-03-21T03:49:57.244Z,8.56
2019-03-21T03:52:28.656Z,8.54
2019-03-21T03:54:59.743Z,8.55
2019-03-21T03:57:30.725Z,8.53
2019-03-21T04:00:01.750Z,8.52
2019-03-21T04:02:32.732Z,8.53
2019-03-21T04:05:03.713Z,8.53
2019-03-21T04:07:34.811Z,8.49
2019-03-21T04:10:06.536Z,8.51
2019-03-21T04:12:38.323Z,8.50
2019-03-21T04:15:10.049Z,8.54
2019-03-21T04:17:41.022Z,8.58
2019-03-21T04:20:13.917Z,8.57
2019-03-21T04:22:45.243Z,8.56
2019-03-21T04:25:19.578Z,8.56
2019-03-21T04:27:50.554Z,8.56
2019-03-21T04:30:21.590Z,8.55
2019-03-21T04:32:52.933Z,8.54
2019-03-21T04:35:23.912Z,8.55
2019-03-21T04:37:56.143Z,8.53
2019-03-21T04:40:27.128Z,8.52
2019-03-21T04:42:58.151Z,8.53
2019-03-21T04:45:29.133Z,8.52
2019-03-21T04:48:00.300Z,8.52
2019-03-21T04:50:31.348Z,8.52
2019-03-21T04:53:02.325Z,8.50
2019-03-21T04:55:33.297Z,8.49
2019-03-21T04:58:04.588Z,8.51
2019-03-21T05:00:36.209Z,8.51
2019-03-21T05:03:07.965Z,8.53
2019-03-21T05:05:38.978Z,8.55
2019-03-21T05:08:09.958Z,8.57
2019-03-21T05:10:40.973Z,8.57
2019-03-21T05:13:11.950Z,8.59
2019-03-21T05:15:43.695Z,8.57
2019-03-21T05:18:29.783Z,8.57
2019-03-21T05:21:00.959Z,8.54
2019-03-21T05:23:31.929Z,8.49
2019-03-21T05:26:04.167Z,8.51
2019-03-21T05:28:35.643Z,8.52
2019-03-21T05:31:10.554Z,8.53
2019-03-21T05:33:41.568Z,8.51
2019-03-21T05:36:12.911Z,8.53
2019-03-21T05:38:44.006Z,8.55
2019-03-21T05:41:14.989Z,8.54
2019-03-21T05:43:49.429Z,8.52
2019-03-21T05:46:26.640Z,8.53
2019-03-21T05:48:53.203Z,8.49
2019-03-21T05:51:24.205Z,8.47
2019-03-21T05:53:55.219Z,8.48
2019-03-21T05:56:26.206Z,8.48
2019-03-21T05:58:57.609Z,8.47
2019-03-21T06:01:28.626Z,8.51
2019-03-21T06:03:59.606Z,8.52
2019-03-21T06:06:44.533Z,8.54
2019-03-21T06:09:17.681Z,8.57
2019-03-21T06:11:52.232Z,8.59
2019-03-21T06:14:23.734Z,8.58
2019-03-21T06:16:54.779Z,8.58
2019-03-21T06:19:57.499Z,8.54
2019-03-21T06:22:45.032Z,8.57
2019-03-21T06:25:28.816Z,8.60
2019-03-21T06:28:00.331Z,8.59
2019-03-21T06:30:31.311Z,8.58
2019-03-21T06:33:02.299Z,8.62
2019-03-21T06:35:33.602Z,8.65
2019-03-21T06:38:05.005Z,8.61
2019-03-21T06:40:36.116Z,8.63
2019-03-21T06:43:07.140Z,8.62
2019-03-21T06:45:47.539Z,8.66
2019-03-21T06:48:11.007Z,8.66
2019-03-21T06:50:42.064Z,8.70
2019-03-21T06:53:13.052Z,8.72
2019-03-21T06:55:44.767Z,8.77
2019-03-21T06:58:15.794Z,8.78
2019-03-21T07:00:46.787Z,8.81
2019-03-21T07:03:17.759Z,8.82
2019-03-21T07:05:48.767Z,8.84
2019-03-21T07:08:20.089Z,8.86
2019-03-21T07:10:51.099Z,8.88
2019-03-21T07:13:22.088Z,8.92
2019-03-21T07:15:53.422Z,8.93
2019-03-21T07:18:24.427Z,8.94
2019-03-21T07:20:55.454Z,8.93
2019-03-21T07:23:26.873Z,8.97
2019-03-21T07:25:57.950Z,8.99
2019-03-21T07:28:28.928Z,9.07
2019-03-21T07:30:59.955Z,9.08
2019-03-21T07:33:30.925Z,9.09
2019-03-21T07:36:01.973Z,9.16
2019-03-21T07:38:33.736Z,9.17
2019-03-21T07:41:04.793Z,9.21
2019-03-21T07:43:35.822Z,9.26
2019-03-21T07:46:06.803Z,9.30
2019-03-21T07:48:37.771Z,9.33
2019-03-21T07:51:08.803Z,9.37
2019-03-21T07:53:39.774Z,9.44
2019-03-21T07:56:10.763Z,9.59
2019-03-21T07:58:41.819Z,9.76
2019-03-21T08:01:12.804Z,9.76
2019-03-21T08:03:45.055Z,9.77
2019-03-21T08:06:16.124Z,9.93
2019-03-21T08:08:47.116Z,9.80
2019-03-21T08:11:18.090Z,9.75
2019-03-21T08:13:49.115Z,9.77
2019-03-21T08:16:20.114Z,9.74
2019-03-21T08:18:51.120Z,9.88
2019-03-21T08:21:22.127Z,9.93
2019-03-21T08:23:53.675Z,10.07
2019-03-21T08:26:24.706Z,10.24
2019-03-21T08:28:56.269Z,10.27
2019-03-21T08:31:27.256Z,10.34
2019-03-21T08:33:58.641Z,10.36
2019-03-21T08:36:29.675Z,10.49
2019-03-21T08:39:00.657Z,10.48
2019-03-21T08:41:31.734Z,10.54
2019-03-21T08:44:02.736Z,10.66
2019-03-21T08:46:33.811Z,10.70
2019-03-21T08:49:04.793Z,10.71
2019-03-21T08:51:35.800Z,10.80
2019-03-21T08:54:06.784Z,10.91
2019-03-21T08:56:37.825Z,11.04
2019-03-21T08:59:09.087Z,11.17
2019-03-21T09:01:40.071Z,11.23
2019-03-21T09:04:11.119Z,11.33
2019-03-21T09:06:42.103Z,11.68
2019-03-21T09:09:13.095Z,11.82
2019-03-21T09:11:44.100Z,11.89
2019-03-21T09:14:15.453Z,12.10
2019-03-21T09:16:46.460Z,12.36
2019-03-21T09:19:17.488Z,12.60
2019-03-21T09:21:48.519Z,12.77
2019-03-21T09:24:19.507Z,12.83
2019-03-21T09:26:50.591Z,12.96
2019-03-21T09:29:21.599Z,12.83
2019-03-21T09:31:52.627Z,12.99
2019-03-21T09:34:23.609Z,13.08
2019-03-21T09:36:55.059Z,13.17
2019-03-21T09:39:26.536Z,13.29
2019-03-21T09:41:57.593Z,13.39
2019-03-21T09:44:29.476Z,13.55
2019-03-21T09:47:00.461Z,13.33
2019-03-21T09:49:31.454Z,13.54
2019-03-21T09:52:02.464Z,13.37
2019-03-21T09:54:33.490Z,13.57
2019-03-21T09:57:04.830Z,13.53
2019-03-21T09:59:35.817Z,13.82
2019-03-21T10:02:06.851Z,13.89
2019-03-21T10:04:37.855Z,13.94
2019-03-21T10:07:09.237Z,14.10
2019-03-21T10:09:40.732Z,14.11
2019-03-21T10:12:11.720Z,14.24
2019-03-21T10:14:42.801Z,14.37
2019-03-21T10:17:13.840Z,14.47
2019-03-21T10:19:45.151Z,14.48
2019-03-21T10:22:16.139Z,14.62
2019-03-21T10:24:48.265Z,14.77
2019-03-21T10:27:19.408Z,14.84
2019-03-21T10:29:50.807Z,14.94
2019-03-21T10:32:21.822Z,14.95
2019-03-21T10:34:52.803Z,15.05
2019-03-21T10:37:23.866Z,15.25
2019-03-21T10:39:54.843Z,14.88
2019-03-21T10:42:25.824Z,15.18
2019-03-21T10:44:56.931Z,15.38
2019-03-21T10:47:27.959Z,15.51
2019-03-21T10:49:59.359Z,15.57
2019-03-21T10:52:30.765Z,15.60
2019-03-21T10:55:01.750Z,15.45
2019-03-21T10:57:32.732Z,15.58
2019-03-21T11:00:03.752Z,15.75
2019-03-21T11:02:34.736Z,15.93
2019-03-21T11:05:05.969Z,16.12
2019-03-21T11:07:36.927Z,16.24
2019-03-21T11:10:08.094Z,16.42
2019-03-21T11:12:39.417Z,16.43
2019-03-21T11:15:10.813Z,16.51
2019-03-21T11:17:41.824Z,16.44
2019-03-21T11:20:18.100Z,16.45
2019-03-21T11:22:49.108Z,16.67
2019-03-21T11:25:20.600Z,16.74
2019-03-21T11:27:51.591Z,16.71
2019-03-21T11:30:38.485Z,16.43
2019-03-21T11:33:09.503Z,16.50
2019-03-21T11:35:40.491Z,16.62
2019-03-21T11:38:11.819Z,16.88
2019-03-21T11:40:43.211Z,17.01
2019-03-21T11:43:19.107Z,17.19
2019-03-21T11:45:50.471Z,17.24
2019-03-21T11:48:22.489Z,17.48
2019-03-21T11:50:53.936Z,17.57
2019-03-21T11:53:25.284Z,17.54
2019-03-21T11:55:56.407Z,17.69
2019-03-21T11:58:27.432Z,17.80
2019-03-21T12:00:58.450Z,18.00
2019-03-21T12:03:29.446Z,17.95
2019-03-21T12:06:00.482Z,17.63
2019-03-21T12:08:31.470Z,17.63
2019-03-21T12:11:02.751Z,17.68
2019-03-21T12:13:33.810Z,17.98
2019-03-21T12:16:04.805Z,18.28
2019-03-21T12:18:35.788Z,18.28
2019-03-21T12:21:06.871Z,18.36
2019-03-21T12:23:38.219Z,18.33
2019-03-21T12:26:09.212Z,18.43
2019-03-21T12:28:40.249Z,18.54
2019-03-21T12:31:11.226Z,18.74
2019-03-21T12:33:42.229Z,18.64
2019-03-21T12:36:13.265Z,18.78
2019-03-21T12:38:44.240Z,18.78
2019-03-21T12:41:15.228Z,18.85
2019-03-21T12:43:46.657Z,18.92
2019-03-21T12:46:17.636Z,19.05
2019-03-21T12:48:48.625Z,19.06
2019-03-21T12:51:19.657Z,19.09
2019-03-21T12:53:50.645Z,18.98
2019-03-21T12:56:21.630Z,19.07
2019-03-21T12:58:52.671Z,19.15
2019-03-21T13:01:23.646Z,19.21
2019-03-21T13:03:54.632Z,19.23
2019-03-21T13:06:26.120Z,19.14
2019-03-21T13:08:57.101Z,19.11
2019-03-21T13:11:28.459Z,19.16
2019-03-21T13:13:59.509Z,19.36
2019-03-21T13:16:30.499Z,19.48
2019-03-21T13:19:01.492Z,19.67
2019-03-21T13:21:32.947Z,19.75
2019-03-21T13:24:03.951Z,19.75
2019-03-21T13:26:34.972Z,19.69
2019-03-21T13:29:06.140Z,19.50
2019-03-21T13:31:38.724Z,19.70
2019-03-21T13:34:10.312Z,19.54
2019-03-21T13:36:41.356Z,19.08
2019-03-21T13:39:12.331Z,19.29
2019-03-21T13:41:43.317Z,18.89
2019-03-21T13:44:14.344Z,18.83
2019-03-21T13:46:45.735Z,18.79
2019-03-21T13:49:16.724Z,18.98
2019-03-21T13:51:47.737Z,19.18
2019-03-21T13:54:18.725Z,19.23
2019-03-21T13:56:49.707Z,19.27
2019-03-21T13:59:21.117Z,19.08
2019-03-21T14:01:52.103Z,19.21
2019-03-21T14:04:23.256Z,18.86
2019-03-21T14:06:54.295Z,19.21
2019-03-21T14:09:25.646Z,19.33
2019-03-21T14:11:56.634Z,19.19
2019-03-21T14:14:27.671Z,19.21
2019-03-21T14:16:58.655Z,19.01
2019-03-21T14:19:29.652Z,18.97
2019-03-21T14:22:01.373Z,19.09
2019-03-21T14:24:32.359Z,19.15
2019-03-21T14:27:03.342Z,19.09
2019-03-21T14:29:34.710Z,19.36
2019-03-21T14:32:06.063Z,19.58
2019-03-21T14:34:37.103Z,19.75
2019-03-21T14:37:08.146Z,19.58
2019-03-21T14:39:39.206Z,19.50
2019-03-21T14:42:10.197Z,19.58
2019-03-21T14:44:41.227Z,19.53
2019-03-21T14:47:12.221Z,19.48
2019-03-21T14:49:43.623Z,19.36
2019-03-21T14:52:14.658Z,19.01
2019-03-21T14:54:45.644Z,19.01
2019-03-21T14:57:17.055Z,18.97
2019-03-21T14:59:48.141Z,18.98
2019-03-21T15:02:19.123Z,18.87
2019-03-21T15:04:50.101Z,18.84
2019-03-21T15:07:21.551Z,18.71
2019-03-21T15:09:52.840Z,18.50
2019-03-21T15:12:23.828Z,18.59
2019-03-21T15:14:54.863Z,18.55
2019-03-21T15:17:26.067Z,18.38
2019-03-21T15:19:57.075Z,18.11
2019-03-21T15:22:28.120Z,18.04
2019-03-21T15:24:59.107Z,18.05
2019-03-21T15:27:30.092Z,18.10
2019-03-21T15:30:01.221Z,18.09
2019-03-21T15:32:32.646Z,18.11
2019-03-21T15:35:03.938Z,18.09
2019-03-21T15:37:36.249Z,18.03
2019-03-21T15:40:08.900Z,17.91
2019-03-21T15:42:40.169Z,17.87
2019-03-21T15:45:22.234Z,17.81
2019-03-21T15:47:46.274Z,17.77
2019-03-21T15:50:38.025Z,17.70
2019-03-21T15:53:11.348Z,17.62
2019-03-21T15:55:42.403Z,17.56
2019-03-21T15:58:13.496Z,17.46
2019-03-21T16:00:44.797Z,17.40
2019-03-21T16:03:16.056Z,17.40
2019-03-21T16:05:47.157Z,17.32
2019-03-21T16:08:18.532Z,17.32
2019-03-21T16:10:49.691Z,17.18
2019-03-21T16:13:20.820Z,17.21
2019-03-21T16:15:51.817Z,17.22
2019-03-21T16:18:22.868Z,17.11
2019-03-21T16:20:53.873Z,17.15
2019-03-21T16:23:24.890Z,17.09
2019-03-21T16:25:57.460Z,16.98
2019-03-21T16:28:28.669Z,16.94
2019-03-21T16:30:59.770Z,16.82
2019-03-21T16:33:30.833Z,16.74
2019-03-21T16:36:01.828Z,16.73
2019-03-21T16:38:33.281Z,16.71
2019-03-21T16:41:04.562Z,16.63
2019-03-21T16:43:35.535Z,16.55
2019-03-21T16:46:06.533Z,16.55
2019-03-21T16:48:37.575Z,16.51
2019-03-21T16:51:08.875Z,16.48
2019-03-21T16:53:39.874Z,16.36
2019-03-21T16:56:11.765Z,16.23
2019-03-21T16:58:42.754Z,16.16
2019-03-21T17:01:14.371Z,16.09
2019-03-21T17:03:45.417Z,16.01
2019-03-21T17:06:16.799Z,15.96
2019-03-21T17:08:47.784Z,15.86
2019-03-21T17:11:18.826Z,15.73
2019-03-21T17:13:50.625Z,15.71
2019-03-21T17:16:21.623Z,15.60
2019-03-21T17:18:55.113Z,15.58
2019-03-21T17:21:26.140Z,15.47
2019-03-21T17:23:57.121Z,15.35
2019-03-21T17:26:28.505Z,15.27
2019-03-21T17:28:59.595Z,15.24
2019-03-21T17:31:30.612Z,15.12
2019-03-21T17:34:03.962Z,15.09
2019-03-21T17:36:34.337Z,14.99
2019-03-21T17:39:08.119Z,14.96
2019-03-21T17:41:39.164Z,14.88
2019-03-21T17:44:10.155Z,14.89
2019-03-21T17:46:41.587Z,14.77
2019-03-21T17:49:12.571Z,14.69
2019-03-21T17:51:46.488Z,14.63
2019-03-21T17:54:16.292Z,14.54
2019-03-21T17:56:47.277Z,14.48
2019-03-21T17:59:18.363Z,14.39
2019-03-21T18:01:49.497Z,14.27
2019-03-21T18:04:20.473Z,14.15
2019-03-21T18:06:51.461Z,14.12
2019-03-21T18:09:22.510Z,14.01
2019-03-21T18:11:53.866Z,13.97
2019-03-21T18:14:25.921Z,13.89
2019-03-21T18:16:57.026Z,13.84
2019-03-21T18:19:28.444Z,13.76
2019-03-21T18:21:59.426Z,13.68
2019-03-21T18:24:30.461Z,13.61
2019-03-21T18:27:01.523Z,13.48
2019-03-21T18:29:32.510Z,13.51
2019-03-21T18:32:04.828Z,13.46
2019-03-21T18:34:35.840Z,13.45
2019-03-21T18:37:10.264Z,13.43
2019-03-21T18:39:41.256Z,13.36
2019-03-21T18:42:12.271Z,13.27
2019-03-21T18:44:43.400Z,13.19
2019-03-21T18:47:14.387Z,13.12
2019-03-21T18:49:45.648Z,13.06
2019-03-21T18:52:16.697Z,13.05
2019-03-21T18:54:48.031Z,13.02
2019-03-21T18:57:19.055Z,12.97
2019-03-21T18:59:50.083Z,12.79
2019-03-21T19:02:21.081Z,12.70
2019-03-21T19:04:52.085Z,12.60
2019-03-21T19:07:23.999Z,12.57
2019-03-21T19:09:55.468Z,12.47
2019-03-21T19:12:26.459Z,12.40
2019-03-21T19:14:57.731Z,12.38
2019-03-21T19:17:28.816Z,12.32
2019-03-21T19:20:01.099Z,12.24
2019-03-21T19:22:32.171Z,12.22
2019-03-21T19:25:03.428Z,12.13
2019-03-21T19:27:34.516Z,12.09
2019-03-21T19:30:07.154Z,12.08
2019-03-21T19:32:39.668Z,11.99
2019-03-21T19:35:11.499Z,12.04
2019-03-21T19:37:43.306Z,12.09
2019-03-21T19:40:15.776Z,12.05
2019-03-21T19:42:46.775Z,12.11
2019-03-21T19:45:19.292Z,12.13
2019-03-21T19:47:50.294Z,12.13
2019-03-21T19:50:21.821Z,12.10
2019-03-21T19:52:52.865Z,12.18
2019-03-21T19:55:30.853Z,12.15
2019-03-21T19:57:58.564Z,12.04
2019-03-21T20:00:30.169Z,12.07
2019-03-21T20:03:01.739Z,12.05
2019-03-21T20:05:33.271Z,11.88
2019-03-21T20:08:04.591Z,11.74
2019-03-21T20:10:35.689Z,11.66
2019-03-21T20:13:06.835Z,11.53
2019-03-21T20:15:40.131Z,11.36
2019-03-21T20:18:12.021Z,11.24
2019-03-21T20:20:47.640Z,11.23
2019-03-21T20:23:18.713Z,11.17
2019-03-21T20:25:51.197Z,11.08
2019-03-21T20:28:22.186Z,11.01
2019-03-21T20:30:53.215Z,11.02
2019-03-21T20:33:24.195Z,10.98
2019-03-21T20:35:55.604Z,10.99
2019-03-21T20:38:26.648Z,10.97
2019-03-21T20:40:57.963Z,10.93
2019-03-21T20:43:28.955Z,10.96
2019-03-21T20:46:00.931Z,10.88
2019-03-21T20:48:30.647Z,10.85
2019-03-21T20:51:03.124Z,10.77
2019-03-21T20:53:34.575Z,10.67
2019-03-21T20:56:06.527Z,10.53
2019-03-21T20:58:37.564Z,10.48
2019-03-21T21:01:09.033Z,10.55
2019-03-21T21:03:40.038Z,10.47
2019-03-21T21:06:11.041Z,10.34
2019-03-21T21:08:42.091Z,10.32
2019-03-21T21:11:13.072Z,10.29
2019-03-21T21:13:44.361Z,10.30
2019-03-21T21:16:15.747Z,10.27
2019-03-21T21:18:46.764Z,10.10
2019-03-21T21:21:17.756Z,10.14
2019-03-21T21:23:48.760Z,10.12
2019-03-21T21:26:21.533Z,10.05
2019-03-21T21:28:52.555Z,9.99
2019-03-21T21:31:23.610Z,9.99
2019-03-21T21:33:54.655Z,9.93
2019-03-21T21:36:25.652Z,9.91
2019-03-21T21:38:56.627Z,9.85
2019-03-21T21:41:27.651Z,9.90
2019-03-21T21:43:58.706Z,9.94
2019-03-21T21:46:29.722Z,9.97
2019-03-21T21:49:00.726Z,9.99
2019-03-21T21:51:31.701Z,9.99
2019-03-21T21:54:02.711Z,9.98
2019-03-21T21:56:33.691Z,9.94
2019-03-21T21:59:05.155Z,9.91
2019-03-21T22:01:36.132Z,9.88
2019-03-21T22:04:07.439Z,9.82
2019-03-21T22:06:38.499Z,9.74
2019-03-21T22:09:10.195Z,9.67
2019-03-21T22:11:41.509Z,9.60
2019-03-21T22:14:12.491Z,9.62
2019-03-21T22:16:43.506Z,9.63
2019-03-21T22:19:14.580Z,9.56
2019-03-21T22:21:45.953Z,9.43
2019-03-21T22:24:17.246Z,9.41
2019-03-21T22:26:48.235Z,9.38
2019-03-21T22:29:19.223Z,9.32
2019-03-21T22:31:50.230Z,9.33
2019-03-21T22:34:21.255Z,9.30
2019-03-21T22:36:52.255Z,9.20
2019-03-21T22:39:23.694Z,9.21
2019-03-21T22:41:54.697Z,9.22
2019-03-21T22:44:25.674Z,9.23
2019-03-21T22:46:56.706Z,9.22
2019-03-21T22:49:27.686Z,9.23
2019-03-21T22:51:58.661Z,9.16
2019-03-21T22:54:29.795Z,9.11
2019-03-21T22:57:01.183Z,8.98
2019-03-21T22:59:32.397Z,8.91
2019-03-21T23:02:04.060Z,8.81
2019-03-21T23:04:35.039Z,8.89
2019-03-21T23:07:06.023Z,8.90
2019-03-21T23:09:37.022Z,8.78
2019-03-21T23:12:07.998Z,8.74
2019-03-21T23:14:39.078Z,8.72
2019-03-21T23:17:10.072Z,8.67
2019-03-21T23:19:41.104Z,8.72
2019-03-21T23:22:12.378Z,8.64
2019-03-21T23:24:43.359Z,8.66
2019-03-21T23:27:14.730Z,8.66
2019-03-21T23:29:46.300Z,8.69
2019-03-21T23:32:17.638Z,8.68
2019-03-21T23:34:48.639Z,8.61
2019-03-21T23:37:19.708Z,8.56
2019-03-21T23:39:50.688Z,8.58
2019-03-21T23:42:21.659Z,8.56
2019-03-21T23:44:53.366Z,8.53
2019-03-21T23:47:24.346Z,8.55
2019-03-21T23:49:55.325Z,8.57
2019-03-21T23:52:26.357Z,8.43
2019-03-21T23:54:57.333Z,8.37
2019-03-21T23:57:28.694Z,8.28
